sensor_id;sensor_type;location;lat;lon;timestamp;pressure;altitude;pressure_sealevel;temperature;humidity
40788;BME280;26497;52.494;7.546;2023-05-23T00:01:01;100897.00;;;19.39;69.03
40788;BME280;26497;52.494;7.546;2023-05-23T00:03:29;100895.94;;;19.45;69.08
40788;BME280;26497;52.494;7.546;2023-05-23T00:05:58;100893.16;;;19.48;68.34
40788;BME280;26497;52.494;7.546;2023-05-23T00:08:25;100887.72;;;19.51;68.54
40788;BME280;26497;52.494;7.546;2023-05-23T00:10:52;100889.81;;;19.41;68.55
40788;BME280;26497;52.494;7.546;2023-05-23T00:13:19;100890.63;;;19.43;68.70
40788;BME280;26497;52.494;7.546;2023-05-23T00:15:47;100892.56;;;19.40;68.84
40788;BME280;26497;52.494;7.546;2023-05-23T00:18:14;100887.13;;;19.41;69.04
40788;BME280;26497;52.494;7.546;2023-05-23T00:20:44;100889.91;;;19.38;68.86
40788;BME280;26497;52.494;7.546;2023-05-23T00:23:12;100896.66;;;19.50;68.83
40788;BME280;26497;52.494;7.546;2023-05-23T00:25:44;100896.56;;;19.53;68.49
40788;BME280;26497;52.494;7.546;2023-05-23T00:28:13;100895.47;;;19.59;68.57
40788;BME280;26497;52.494;7.546;2023-05-23T00:30:42;100901.13;;;19.50;69.00
40788;BME280;26497;52.494;7.546;2023-05-23T00:33:09;100900.09;;;19.54;69.04
40788;BME280;26497;52.494;7.546;2023-05-23T00:35:39;100899.06;;;19.58;68.72
40788;BME280;26497;52.494;7.546;2023-05-23T00:38:08;100894.91;;;19.49;69.16
40788;BME280;26497;52.494;7.546;2023-05-23T00:40:36;100884.97;;;19.53;69.14
40788;BME280;26497;52.494;7.546;2023-05-23T00:43:03;100884.97;;;19.53;68.93
40788;BME280;26497;52.494;7.546;2023-05-23T00:45:31;100894.84;;;19.51;68.59
40788;BME280;26497;52.494;7.546;2023-05-23T00:47:58;100889.19;;;19.60;68.38
40788;BME280;26497;52.494;7.546;2023-05-23T00:50:27;100897.31;;;19.57;68.41
40788;BME280;26497;52.494;7.546;2023-05-23T00:52:56;100889.41;;;19.54;68.58
40788;BME280;26497;52.494;7.546;2023-05-23T00:55:27;100895.63;;;19.54;68.95
40788;BME280;26497;52.494;7.546;2023-05-23T00:57:55;100900.50;;;19.41;69.23
40788;BME280;26497;52.494;7.546;2023-05-23T01:00:23;100894.09;;;19.47;69.03
40788;BME280;26497;52.494;7.546;2023-05-23T01:02:51;100897.53;;;19.51;68.88
40788;BME280;26497;52.494;7.546;2023-05-23T01:05:21;100898.41;;;19.51;69.22
40788;BME280;26497;52.494;7.546;2023-05-23T01:07:50;100899.34;;;19.50;69.41
40788;BME280;26497;52.494;7.546;2023-05-23T01:10:20;100894.63;;;19.57;69.33
40788;BME280;26497;52.494;7.546;2023-05-23T01:13:09;100900.81;;;19.59;69.31
40788;BME280;26497;52.494;7.546;2023-05-23T01:15:44;100897.22;;;19.60;69.52
40788;BME280;26497;52.494;7.546;2023-05-23T01:18:17;100893.09;;;19.50;70.12
40788;BME280;26497;52.494;7.546;2023-05-23T01:20:51;100893.91;;;19.52;70.24
40788;BME280;26497;52.494;7.546;2023-05-23T01:26:51;100895.78;;;19.50;70.82
40788;BME280;26497;52.494;7.546;2023-05-23T01:29:30;100896.38;;;19.31;71.98
40788;BME280;26497;52.494;7.546;2023-05-23T01:32:00;100900.88;;;19.30;72.40
40788;BME280;26497;52.494;7.546;2023-05-23T01:34:28;100898.50;;;19.21;72.89
40788;BME280;26497;52.494;7.546;2023-05-23T01:36:56;100895.09;;;19.16;73.45
40788;BME280;26497;52.494;7.546;2023-05-23T01:39:23;100902.66;;;19.03;74.77
40788;BME280;26497;52.494;7.546;2023-05-23T01:41:52;100898.56;;;19.20;74.17
40788;BME280;26497;52.494;7.546;2023-05-23T01:44:20;100909.59;;;19.09;74.67
40788;BME280;26497;52.494;7.546;2023-05-23T01:46:49;100915.31;;;18.98;75.60
40788;BME280;26497;52.494;7.546;2023-05-23T01:49:17;100913.25;;;19.06;75.50
40788;BME280;26497;52.494;7.546;2023-05-23T01:51:49;100919.81;;;18.94;76.11
40788;BME280;26497;52.494;7.546;2023-05-23T01:54:17;100918.06;;;18.93;76.65
40788;BME280;26497;52.494;7.546;2023-05-23T01:56:46;100921.84;;;18.86;77.23
40788;BME280;26497;52.494;7.546;2023-05-23T01:59:14;100924.31;;;18.94;76.93
40788;BME280;26497;52.494;7.546;2023-05-23T02:01:41;100925.16;;;18.94;76.79
40788;BME280;26497;52.494;7.546;2023-05-23T02:04:10;100925.25;;;18.91;77.25
40788;BME280;26497;52.494;7.546;2023-05-23T02:06:37;100927.16;;;18.88;77.70
40788;BME280;26497;52.494;7.546;2023-05-23T02:09:04;100923.66;;;18.85;78.08
40788;BME280;26497;52.494;7.546;2023-05-23T02:11:32;100932.06;;;18.73;78.49
40788;BME280;26497;52.494;7.546;2023-05-23T02:13:59;100937.22;;;18.79;78.60
40788;BME280;26497;52.494;7.546;2023-05-23T02:16:27;100933.72;;;18.77;78.71
40788;BME280;26497;52.494;7.546;2023-05-23T02:18:55;100940.09;;;18.71;79.16
40788;BME280;26497;52.494;7.546;2023-05-23T02:21:23;100935.66;;;18.72;79.24
40788;BME280;26497;52.494;7.546;2023-05-23T02:23:51;100934.56;;;18.78;79.08
40788;BME280;26497;52.494;7.546;2023-05-23T02:26:18;100935.38;;;18.81;79.00
40788;BME280;26497;52.494;7.546;2023-05-23T02:28:46;100934.38;;;18.84;78.96
40788;BME280;26497;52.494;7.546;2023-05-23T02:31:13;100924.78;;;18.78;79.11
40788;BME280;26497;52.494;7.546;2023-05-23T02:33:41;100935.47;;;18.78;78.95
40788;BME280;26497;52.494;7.546;2023-05-23T02:36:09;100936.69;;;18.66;79.73
40788;BME280;26497;52.494;7.546;2023-05-23T02:38:37;100935.00;;;18.64;80.26
40788;BME280;26497;52.494;7.546;2023-05-23T02:41:05;100940.34;;;18.64;80.27
40788;BME280;26497;52.494;7.546;2023-05-23T02:43:32;100948.56;;;18.56;81.36
40788;BME280;26497;52.494;7.546;2023-05-23T02:45:59;100945.78;;;18.61;81.41
40788;BME280;26497;52.494;7.546;2023-05-23T02:48:26;100947.47;;;18.63;81.66
40788;BME280;26497;52.494;7.546;2023-05-23T02:50:54;100946.31;;;18.72;81.20
40788;BME280;26497;52.494;7.546;2023-05-23T02:53:21;100946.44;;;18.67;81.62
40788;BME280;26497;52.494;7.546;2023-05-23T02:55:50;100945.22;;;18.79;81.28
40788;BME280;26497;52.494;7.546;2023-05-23T02:58:17;100950.41;;;18.84;80.83
40788;BME280;26497;52.494;7.546;2023-05-23T03:00:45;100948.63;;;18.84;80.97
40788;BME280;26497;52.494;7.546;2023-05-23T03:03:12;100946.25;;;18.75;81.26
40788;BME280;26497;52.494;7.546;2023-05-23T03:05:40;100954.34;;;18.72;81.92
40788;BME280;26497;52.494;7.546;2023-05-23T03:08:07;100963.19;;;18.74;81.91
40788;BME280;26497;52.494;7.546;2023-05-23T03:10:37;100960.16;;;18.86;81.38
40788;BME280;26497;52.494;7.546;2023-05-23T03:13:05;100956.66;;;18.84;81.25
40788;BME280;26497;52.494;7.546;2023-05-23T03:15:33;100957.56;;;18.83;81.72
40788;BME280;26497;52.494;7.546;2023-05-23T03:18:03;100949.75;;;18.77;81.58
40788;BME280;26497;52.494;7.546;2023-05-23T03:20:30;100947.00;;;18.79;81.73
40788;BME280;26497;52.494;7.546;2023-05-23T03:22:57;100954.25;;;18.75;81.74
40788;BME280;26497;52.494;7.546;2023-05-23T03:25:25;100957.75;;;18.77;81.81
40788;BME280;26497;52.494;7.546;2023-05-23T03:27:52;100958.66;;;18.76;81.52
40788;BME280;26497;52.494;7.546;2023-05-23T03:30:21;100948.53;;;18.88;81.12
40788;BME280;26497;52.494;7.546;2023-05-23T03:32:48;100941.94;;;18.69;81.21
40788;BME280;26497;52.494;7.546;2023-05-23T03:35:16;100938.44;;;18.67;81.22
40788;BME280;26497;52.494;7.546;2023-05-23T03:37:43;100950.03;;;18.36;82.21
40788;BME280;26497;52.494;7.546;2023-05-23T03:40:11;100955.88;;;18.49;81.79
40788;BME280;26497;52.494;7.546;2023-05-23T03:42:39;100958.97;;;18.65;81.16
40788;BME280;26497;52.494;7.546;2023-05-23T03:45:07;100962.28;;;18.74;80.45
40788;BME280;26497;52.494;7.546;2023-05-23T03:47:36;100970.25;;;18.45;81.44
40788;BME280;26497;52.494;7.546;2023-05-23T03:50:04;100977.25;;;18.49;80.88
40788;BME280;26497;52.494;7.546;2023-05-23T03:52:32;100978.16;;;18.50;80.79
40788;BME280;26497;52.494;7.546;2023-05-23T03:55:00;100974.31;;;18.59;80.23
40788;BME280;26497;52.494;7.546;2023-05-23T03:57:28;100987.59;;;18.62;80.04
40788;BME280;26497;52.494;7.546;2023-05-23T03:59:55;100985.47;;;18.73;79.42
40788;BME280;26497;52.494;7.546;2023-05-23T04:02:23;100980.59;;;18.88;78.75
40788;BME280;26497;52.494;7.546;2023-05-23T04:04:53;100990.81;;;18.73;78.83
40788;BME280;26497;52.494;7.546;2023-05-23T04:07:21;100983.91;;;18.66;78.81
40788;BME280;26497;52.494;7.546;2023-05-23T04:09:53;100988.25;;;18.70;78.90
40788;BME280;26497;52.494;7.546;2023-05-23T04:12:21;100994.31;;;18.75;78.00
40788;BME280;26497;52.494;7.546;2023-05-23T04:14:48;100990.19;;;18.63;78.24
40788;BME280;26497;52.494;7.546;2023-05-23T04:17:16;100992.00;;;18.63;77.77
40788;BME280;26497;52.494;7.546;2023-05-23T04:19:44;101002.44;;;18.40;78.06
40788;BME280;26497;52.494;7.546;2023-05-23T04:22:13;101004.13;;;18.43;78.16
40788;BME280;26497;52.494;7.546;2023-05-23T04:24:40;101010.28;;;18.45;77.78
40788;BME280;26497;52.494;7.546;2023-05-23T04:27:08;101015.72;;;18.42;77.49
40788;BME280;26497;52.494;7.546;2023-05-23T04:29:35;101006.72;;;18.46;77.22
40788;BME280;26497;52.494;7.546;2023-05-23T04:32:03;101018.41;;;18.42;77.26
40788;BME280;26497;52.494;7.546;2023-05-23T04:34:31;101024.16;;;18.26;77.61
40788;BME280;26497;52.494;7.546;2023-05-23T04:36:59;101026.31;;;18.12;78.01
40788;BME280;26497;52.494;7.546;2023-05-23T04:39:31;101036.41;;;17.97;78.61
40788;BME280;26497;52.494;7.546;2023-05-23T04:41:59;101035.22;;;18.11;78.23
40788;BME280;26497;52.494;7.546;2023-05-23T04:44:27;101047.16;;;17.96;79.22
40788;BME280;26497;52.494;7.546;2023-05-23T04:46:55;101042.38;;;18.10;78.42
40788;BME280;26497;52.494;7.546;2023-05-23T04:49:22;101048.00;;;17.96;78.31
40788;BME280;26497;52.494;7.546;2023-05-23T04:51:50;101047.06;;;18.01;78.24
40788;BME280;26497;52.494;7.546;2023-05-23T04:54:17;101052.28;;;18.05;77.83
40788;BME280;26497;52.494;7.546;2023-05-23T04:56:46;101057.75;;;17.99;77.93
40788;BME280;26497;52.494;7.546;2023-05-23T04:59:13;101059.91;;;18.21;76.84
40788;BME280;26497;52.494;7.546;2023-05-23T05:01:40;101055.56;;;18.17;76.36
40788;BME280;26497;52.494;7.546;2023-05-23T05:04:07;101064.34;;;18.20;75.76
40788;BME280;26497;52.494;7.546;2023-05-23T05:06:34;101078.91;;;18.08;75.67
40788;BME280;26497;52.494;7.546;2023-05-23T05:09:01;101081.75;;;17.99;76.03
40788;BME280;26497;52.494;7.546;2023-05-23T05:11:30;101071.53;;;17.80;76.44
40788;BME280;26497;52.494;7.546;2023-05-23T05:13:59;101080.88;;;17.61;77.37
40788;BME280;26497;52.494;7.546;2023-05-23T05:16:26;101098.91;;;17.49;78.40
40788;BME280;26497;52.494;7.546;2023-05-23T05:18:53;101088.03;;;17.60;78.21
40788;BME280;26497;52.494;7.546;2023-05-23T05:21:20;101092.56;;;17.55;78.32
40788;BME280;26497;52.494;7.546;2023-05-23T05:23:50;101091.72;;;17.53;78.72
40788;BME280;26497;52.494;7.546;2023-05-23T05:26:17;101095.19;;;17.57;78.81
40788;BME280;26497;52.494;7.546;2023-05-23T05:28:44;101089.22;;;17.47;78.88
40788;BME280;26497;52.494;7.546;2023-05-23T05:31:16;101101.50;;;17.54;78.62
40788;BME280;26497;52.494;7.546;2023-05-23T05:33:52;101105.19;;;17.47;79.04
40788;BME280;26497;52.494;7.546;2023-05-23T05:36:29;101114.75;;;17.57;78.45
40788;BME280;26497;52.494;7.546;2023-05-23T05:39:01;101125.06;;;17.73;77.78
40788;BME280;26497;52.494;7.546;2023-05-23T05:41:33;101122.47;;;17.69;77.84
40788;BME280;26497;52.494;7.546;2023-05-23T05:44:07;101125.06;;;17.73;77.94
40788;BME280;26497;52.494;7.546;2023-05-23T05:46:36;101119.25;;;17.53;78.53
40788;BME280;26497;52.494;7.546;2023-05-23T05:49:05;101122.63;;;17.62;78.46
40788;BME280;26497;52.494;7.546;2023-05-23T05:51:32;101130.69;;;17.60;78.42
40788;BME280;26497;52.494;7.546;2023-05-23T05:54:00;101135.25;;;17.53;78.59
40788;BME280;26497;52.494;7.546;2023-05-23T05:56:27;101144.09;;;17.56;78.81
40788;BME280;26497;52.494;7.546;2023-05-23T05:58:58;101138.38;;;17.74;78.45
40788;BME280;26497;52.494;7.546;2023-05-23T06:01:26;101140.97;;;17.77;78.51
40788;BME280;26497;52.494;7.546;2023-05-23T06:03:54;101143.19;;;17.58;78.84
40788;BME280;26497;52.494;7.546;2023-05-23T06:06:23;101145.78;;;17.61;78.96
40788;BME280;26497;52.494;7.546;2023-05-23T06:08:50;101151.13;;;17.60;79.16
40788;BME280;26497;52.494;7.546;2023-05-23T06:11:18;101147.53;;;17.61;79.28
40788;BME280;26497;52.494;7.546;2023-05-23T06:13:45;101151.09;;;17.61;79.50
40788;BME280;26497;52.494;7.546;2023-05-23T06:16:12;101152.94;;;17.59;79.37
40788;BME280;26497;52.494;7.546;2023-05-23T06:18:39;101156.41;;;17.63;79.26
40788;BME280;26497;52.494;7.546;2023-05-23T06:21:08;101158.34;;;17.56;79.22
40788;BME280;26497;52.494;7.546;2023-05-23T06:23:35;101162.69;;;17.59;79.26
40788;BME280;26497;52.494;7.546;2023-05-23T06:26:02;101169.22;;;17.45;79.75
40788;BME280;26497;52.494;7.546;2023-05-23T06:28:32;101170.25;;;17.38;80.31
40788;BME280;26497;52.494;7.546;2023-05-23T06:30:59;101174.47;;;17.48;80.29
40788;BME280;26497;52.494;7.546;2023-05-23T06:33:27;101180.41;;;17.63;79.60
40788;BME280;26497;52.494;7.546;2023-05-23T06:35:56;101188.41;;;17.63;79.25
40788;BME280;26497;52.494;7.546;2023-05-23T06:38:28;101189.69;;;17.45;79.38
40788;BME280;26497;52.494;7.546;2023-05-23T06:40:55;101194.34;;;17.33;79.85
40788;BME280;26497;52.494;7.546;2023-05-23T06:43:22;101206.13;;;17.21;80.63
40788;BME280;26497;52.494;7.546;2023-05-23T06:45:49;101196.25;;;17.27;80.45
40788;BME280;26497;52.494;7.546;2023-05-23T06:48:16;101205.28;;;17.19;80.51
40788;BME280;26497;52.494;7.546;2023-05-23T06:50:43;101206.22;;;17.17;80.75
40788;BME280;26497;52.494;7.546;2023-05-23T06:53:10;101212.28;;;17.25;80.31
40788;BME280;26497;52.494;7.546;2023-05-23T06:55:38;101209.50;;;17.31;80.24
40788;BME280;26497;52.494;7.546;2023-05-23T06:58:05;101220.44;;;17.16;80.48
40788;BME280;26497;52.494;7.546;2023-05-23T07:00:32;101218.69;;;17.15;80.39
40788;BME280;26497;52.494;7.546;2023-05-23T07:02:59;101217.88;;;17.11;80.75
40788;BME280;26497;52.494;7.546;2023-05-23T07:05:28;101225.25;;;16.97;81.13
40788;BME280;26497;52.494;7.546;2023-05-23T07:07:55;101219.66;;;17.12;80.97
40788;BME280;26497;52.494;7.546;2023-05-23T07:10:22;101215.84;;;17.24;80.25
40788;BME280;26497;52.494;7.546;2023-05-23T07:12:50;101233.72;;;17.19;80.15
40788;BME280;26497;52.494;7.546;2023-05-23T07:15:19;101235.69;;;17.09;80.14
40788;BME280;26497;52.494;7.546;2023-05-23T07:17:45;101237.34;;;17.16;79.85
40788;BME280;26497;52.494;7.546;2023-05-23T07:20:12;101233.66;;;17.22;79.23
40788;BME280;26497;52.494;7.546;2023-05-23T07:22:39;101241.13;;;17.03;80.39
40788;BME280;26497;52.494;7.546;2023-05-23T07:25:07;101241.13;;;17.03;80.47
40788;BME280;26497;52.494;7.546;2023-05-23T07:27:34;101250.22;;;16.89;81.37
40788;BME280;26497;52.494;7.546;2023-05-23T07:30:04;101255.94;;;17.18;80.14
40788;BME280;26497;52.494;7.546;2023-05-23T07:32:32;101254.91;;;17.25;79.74
40788;BME280;26497;52.494;7.546;2023-05-23T07:34:59;101252.19;;;17.28;79.61
40788;BME280;26497;52.494;7.546;2023-05-23T07:37:26;101257.44;;;17.33;79.30
40788;BME280;26497;52.494;7.546;2023-05-23T07:39:53;101264.72;;;17.23;79.01
40788;BME280;26497;52.494;7.546;2023-05-23T07:42:20;101270.81;;;17.31;78.76
40788;BME280;26497;52.494;7.546;2023-05-23T07:44:47;101272.31;;;17.45;78.37
40788;BME280;26497;52.494;7.546;2023-05-23T07:47:15;101271.59;;;17.35;78.35
40788;BME280;26497;52.494;7.546;2023-05-23T07:49:42;101283.50;;;17.17;78.06
40788;BME280;26497;52.494;7.546;2023-05-23T07:52:09;101292.19;;;17.27;77.70
40788;BME280;26497;52.494;7.546;2023-05-23T07:54:36;101291.97;;;17.41;77.23
40788;BME280;26497;52.494;7.546;2023-05-23T07:57:04;101300.03;;;17.36;77.00
40788;BME280;26497;52.494;7.546;2023-05-23T07:59:32;101295.00;;;17.19;76.89
40788;BME280;26497;52.494;7.546;2023-05-23T08:01:58;101304.94;;;17.10;76.83
40788;BME280;26497;52.494;7.546;2023-05-23T08:04:27;101297.13;;;16.98;77.43
40788;BME280;26497;52.494;7.546;2023-05-23T08:06:54;101306.09;;;16.92;77.25
40788;BME280;26497;52.494;7.546;2023-05-23T08:09:22;101297.41;;;16.79;77.21
40788;BME280;26497;52.494;7.546;2023-05-23T08:11:49;101306.19;;;16.86;76.82
40788;BME280;26497;52.494;7.546;2023-05-23T08:14:16;101305.72;;;17.16;76.07
40788;BME280;26497;52.494;7.546;2023-05-23T08:16:43;101317.94;;;17.29;75.21
40788;BME280;26497;52.494;7.546;2023-05-23T08:19:10;101330.34;;;17.30;74.49
40788;BME280;26497;52.494;7.546;2023-05-23T08:21:39;101327.78;;;17.24;74.61
40788;BME280;26497;52.494;7.546;2023-05-23T08:24:06;101323.28;;;17.28;74.21
40788;BME280;26497;52.494;7.546;2023-05-23T08:26:33;101317.94;;;17.28;74.56
40788;BME280;26497;52.494;7.546;2023-05-23T08:29:01;101320.97;;;17.07;74.06
40788;BME280;26497;52.494;7.546;2023-05-23T08:31:28;101328.75;;;17.20;74.91
40788;BME280;26497;52.494;7.546;2023-05-23T08:33:55;101321.00;;;17.56;73.62
40788;BME280;26497;52.494;7.546;2023-05-23T08:36:22;101333.63;;;17.90;71.78
40788;BME280;26497;52.494;7.546;2023-05-23T08:38:50;101332.91;;;18.27;70.20
40788;BME280;26497;52.494;7.546;2023-05-23T08:41:19;101339.09;;;18.69;68.55
40788;BME280;26497;52.494;7.546;2023-05-23T08:43:47;101338.16;;;19.44;65.95
40788;BME280;26497;52.494;7.546;2023-05-23T08:46:14;101336.78;;;19.94;62.71
40788;BME280;26497;52.494;7.546;2023-05-23T08:48:43;101349.47;;;20.18;59.96
40788;BME280;26497;52.494;7.546;2023-05-23T08:51:17;101347.31;;;20.60;59.60
40788;BME280;26497;52.494;7.546;2023-05-23T08:53:45;101349.50;;;20.75;57.46
40788;BME280;26497;52.494;7.546;2023-05-23T08:56:15;101352.03;;;20.23;56.41
40788;BME280;26497;52.494;7.546;2023-05-23T08:58:42;101354.50;;;19.99;58.17
40788;BME280;26497;52.494;7.546;2023-05-23T09:01:10;101372.56;;;20.23;57.59
40788;BME280;26497;52.494;7.546;2023-05-23T09:03:39;101375.97;;;20.28;55.06
40788;BME280;26497;52.494;7.546;2023-05-23T09:06:08;101371.50;;;20.28;54.46
40788;BME280;26497;52.494;7.546;2023-05-23T09:08:35;101365.13;;;20.32;52.46
40788;BME280;26497;52.494;7.546;2023-05-23T09:11:04;101377.03;;;20.22;54.63
40788;BME280;26497;52.494;7.546;2023-05-23T09:13:34;101364.50;;;20.24;54.35
40788;BME280;26497;52.494;7.546;2023-05-23T09:16:03;101362.09;;;20.45;51.85
40788;BME280;26497;52.494;7.546;2023-05-23T09:18:37;101375.38;;;20.76;50.43
40788;BME280;26497;52.494;7.546;2023-05-23T09:21:04;101363.72;;;21.08;51.25
40788;BME280;26497;52.494;7.546;2023-05-23T09:23:32;101380.63;;;21.10;48.83
40788;BME280;26497;52.494;7.546;2023-05-23T09:26:03;101374.41;;;21.34;49.64
40788;BME280;26497;52.494;7.546;2023-05-23T09:28:33;101379.19;;;21.78;48.34
40788;BME280;26497;52.494;7.546;2023-05-23T09:31:02;101376.88;;;22.64;48.86
40788;BME280;26497;52.494;7.546;2023-05-23T09:33:37;101383.66;;;23.81;46.47
40788;BME280;26497;52.494;7.546;2023-05-23T09:36:05;101378.31;;;24.96;42.43
40788;BME280;26497;52.494;7.546;2023-05-23T09:38:37;101373.91;;;25.13;37.18
40788;BME280;26497;52.494;7.546;2023-05-23T09:41:04;101393.81;;;24.93;39.48
40788;BME280;26497;52.494;7.546;2023-05-23T09:43:31;101394.38;;;24.61;38.56
40788;BME280;26497;52.494;7.546;2023-05-23T09:46:07;101384.66;;;23.99;38.62
40788;BME280;26497;52.494;7.546;2023-05-23T09:48:34;101394.09;;;23.68;40.79
40788;BME280;26497;52.494;7.546;2023-05-23T09:51:03;101399.13;;;23.97;40.29
40788;BME280;26497;52.494;7.546;2023-05-23T09:53:31;101396.09;;;24.44;40.04
40788;BME280;26497;52.494;7.546;2023-05-23T09:55:58;101386.78;;;25.25;38.33
40788;BME280;26497;52.494;7.546;2023-05-23T09:58:28;101387.13;;;25.54;36.49
40788;BME280;26497;52.494;7.546;2023-05-23T10:00:57;101394.97;;;26.10;34.18
40788;BME280;26497;52.494;7.546;2023-05-23T10:03:33;101380.47;;;26.29;35.00
40788;BME280;26497;52.494;7.546;2023-05-23T10:06:07;101382.50;;;26.41;34.91
40788;BME280;26497;52.494;7.546;2023-05-23T10:08:39;101374.88;;;27.12;33.85
40788;BME280;26497;52.494;7.546;2023-05-23T10:14:39;101370.31;;;28.46;31.67
40788;BME280;26497;52.494;7.546;2023-05-23T10:17:16;101380.03;;;29.97;29.11
40788;BME280;26497;52.494;7.546;2023-05-23T10:19:51;101381.38;;;30.68;28.97
40788;BME280;26497;52.494;7.546;2023-05-23T10:22:20;101382.00;;;30.96;26.60
40788;BME280;26497;52.494;7.546;2023-05-23T10:24:47;101410.28;;;30.31;27.02
40788;BME280;26497;52.494;7.546;2023-05-23T10:27:15;101403.47;;;29.06;28.00
40788;BME280;26497;52.494;7.546;2023-05-23T10:29:43;101403.63;;;27.90;29.10
40788;BME280;26497;52.494;7.546;2023-05-23T10:32:11;101406.94;;;27.34;31.02
40788;BME280;26497;52.494;7.546;2023-05-23T10:34:55;101404.47;;;27.62;30.01
40788;BME280;26497;52.494;7.546;2023-05-23T10:37:31;101408.16;;;28.77;29.85
40788;BME280;26497;52.494;7.546;2023-05-23T10:40:04;101395.16;;;28.82;29.01
40788;BME280;26497;52.494;7.546;2023-05-23T10:42:43;101405.97;;;28.40;29.30
40788;BME280;26497;52.494;7.546;2023-05-23T10:45:18;101405.25;;;28.51;29.46
40788;BME280;26497;52.494;7.546;2023-05-23T10:47:47;101410.91;;;28.19;29.75
40788;BME280;26497;52.494;7.546;2023-05-23T10:50:30;101410.13;;;28.31;28.88
40788;BME280;26497;52.494;7.546;2023-05-23T10:52:59;101411.03;;;28.32;30.14
40788;BME280;26497;52.494;7.546;2023-05-23T10:55:31;101412.00;;;29.68;29.19
40788;BME280;26497;52.494;7.546;2023-05-23T10:58:10;101400.75;;;31.12;26.82
40788;BME280;26497;52.494;7.546;2023-05-23T11:00:37;101395.44;;;31.10;25.89
40788;BME280;26497;52.494;7.546;2023-05-23T11:03:05;101409.53;;;31.04;25.53
40788;BME280;26497;52.494;7.546;2023-05-23T11:05:34;101424.97;;;30.29;26.07
40788;BME280;26497;52.494;7.546;2023-05-23T11:08:10;101424.16;;;29.49;25.86
40788;BME280;26497;52.494;7.546;2023-05-23T11:10:52;101427.97;;;29.47;24.27
40788;BME280;26497;52.494;7.546;2023-05-23T11:13:20;101424.97;;;29.77;26.18
40788;BME280;26497;52.494;7.546;2023-05-23T11:15:47;101415.97;;;29.36;27.04
40788;BME280;26497;52.494;7.546;2023-05-23T11:18:23;101422.81;;;29.02;27.13
40788;BME280;26497;52.494;7.546;2023-05-23T11:20:54;101426.34;;;28.75;27.47
40788;BME280;26497;52.494;7.546;2023-05-23T11:23:22;101429.56;;;29.09;27.99
40788;BME280;26497;52.494;7.546;2023-05-23T11:25:51;101436.22;;;30.49;24.49
40788;BME280;26497;52.494;7.546;2023-05-23T11:28:19;101430.19;;;29.80;24.96
40788;BME280;26497;52.494;7.546;2023-05-23T11:30:49;101437.31;;;29.15;26.79
40788;BME280;26497;52.494;7.546;2023-05-23T11:33:17;101439.88;;;28.33;25.85
40788;BME280;26497;52.494;7.546;2023-05-23T11:35:47;101439.63;;;27.92;27.71
40788;BME280;26497;52.494;7.546;2023-05-23T11:38:16;101437.59;;;27.51;29.69
40788;BME280;26497;52.494;7.546;2023-05-23T11:40:44;101432.09;;;27.98;28.55
40788;BME280;26497;52.494;7.546;2023-05-23T11:43:14;101453.50;;;28.17;27.39
40788;BME280;26497;52.494;7.546;2023-05-23T11:45:41;101447.72;;;27.78;26.85
40788;BME280;26497;52.494;7.546;2023-05-23T11:48:10;101460.28;;;28.53;26.54
40788;BME280;26497;52.494;7.546;2023-05-23T11:50:46;101450.50;;;28.50;26.35
40788;BME280;26497;52.494;7.546;2023-05-23T11:53:15;101445.91;;;27.78;26.15
40788;BME280;26497;52.494;7.546;2023-05-23T11:55:49;101461.00;;;27.05;26.99
40788;BME280;26497;52.494;7.546;2023-05-23T11:58:18;101461.81;;;26.74;26.03
40788;BME280;26497;52.494;7.546;2023-05-23T12:00:45;101458.94;;;26.61;28.90
40788;BME280;26497;52.494;7.546;2023-05-23T12:03:12;101457.47;;;26.71;27.75
40788;BME280;26497;52.494;7.546;2023-05-23T12:05:42;101463.50;;;26.27;29.12
40788;BME280;26497;52.494;7.546;2023-05-23T12:08:11;101463.31;;;26.30;29.18
40788;BME280;26497;52.494;7.546;2023-05-23T12:10:49;101458.50;;;27.17;28.81
40788;BME280;26497;52.494;7.546;2023-05-23T12:13:17;101454.44;;;28.01;27.06
40788;BME280;26497;52.494;7.546;2023-05-23T12:15:44;101452.28;;;27.92;27.75
40788;BME280;26497;52.494;7.546;2023-05-23T12:18:12;101470.38;;;27.77;26.72
40788;BME280;26497;52.494;7.546;2023-05-23T12:20:40;101458.59;;;27.92;26.64
40788;BME280;26497;52.494;7.546;2023-05-23T12:23:07;101456.72;;;28.38;27.70
40788;BME280;26497;52.494;7.546;2023-05-23T12:25:40;101472.09;;;29.23;24.35
40788;BME280;26497;52.494;7.546;2023-05-23T12:28:08;101467.25;;;29.68;22.87
40788;BME280;26497;52.494;7.546;2023-05-23T12:30:41;101477.22;;;28.86;25.91
40788;BME280;26497;52.494;7.546;2023-05-23T12:33:09;101473.81;;;29.51;25.36
40788;BME280;26497;52.494;7.546;2023-05-23T12:35:36;101470.47;;;30.27;25.39
40788;BME280;26497;52.494;7.546;2023-05-23T12:38:05;101477.25;;;31.09;22.90
40788;BME280;26497;52.494;7.546;2023-05-23T12:40:34;101462.66;;;31.58;22.73
40788;BME280;26497;52.494;7.546;2023-05-23T12:43:02;101463.16;;;31.63;22.03
40788;BME280;26497;52.494;7.546;2023-05-23T12:45:32;101478.19;;;31.21;21.80
40788;BME280;26497;52.494;7.546;2023-05-23T12:47:59;101480.78;;;30.09;23.06
40788;BME280;26497;52.494;7.546;2023-05-23T12:50:26;101486.53;;;28.52;23.73
40788;BME280;26497;52.494;7.546;2023-05-23T12:52:53;101482.41;;;27.87;26.20
40788;BME280;26497;52.494;7.546;2023-05-23T12:55:21;101474.81;;;28.37;25.94
40788;BME280;26497;52.494;7.546;2023-05-23T12:57:48;101477.25;;;28.42;24.26
40788;BME280;26497;52.494;7.546;2023-05-23T13:00:18;101492.47;;;27.85;25.88
40788;BME280;26497;52.494;7.546;2023-05-23T13:02:45;101493.34;;;27.23;25.61
40788;BME280;26497;52.494;7.546;2023-05-23T13:05:12;101488.69;;;26.77;25.96